Labs

Pokémon
United States
Tournaments

1065 tournaments, 1063 completed

Alabama
10/21 Saturday
9:30 Cocoa Central Library/ Catherine Schweinsberg Rood Library (32922) 1 + 1 + 10 = 12
10:00 New Salisbury (47161) 0 + 4 + 15 = 19
12:00 New Salisbury (47161) 0 + 1 + 12 = 13
10/22 Sunday
9:00 Opelika (36801) 0 + 1 + 7 = 8
10/28 Saturday
Birmingham (35244) 3 + 5 + 11 = 19
11:00 Mobile (36618) 3 + 1 + 14 = 18
12:00 Huntsville (35801) 4 + 8 + 8 = 20
12:30 Montgomery (36117) 0 + 0 + 12 = 12
1:00 Boardman (44512) 0 + 0 + 8 = 8
4:00 Melbourne (32935) 2 + 1 + 9 = 12
10/29 Sunday
1:00 Opelika (36801) 0 + 0 + 8 = 8
2:00 Leeds (35094) 2 + 2 + 18 = 22
Alaska
10/21 Saturday
12:00 Anchorage (99504) 2 + 2 + 13 = 17
10/22 Sunday
12:00 Anchorage (99515) 4 + 4 + 16 = 24
1:00 Fairbanks (99701) 2 + 5 + 19 = 26
Alberta
10/21 Saturday
9:00 Lloydminster (T9V 2H3) 1 + 0 + 13 = 14
10:00 Edmonton (T5E 4C3) 0 + 0 + 14 = 14
10:30 St. Albert (T8N 6A7) 12 + 5 + 9 = 26
1:00 Edmonton (T5E 4C3) 3 + 0 + 13 = 16
1:30 St. Albert (T8N 6A7) 9 + 7 + 7 = 23
2:00 Calgary (T2E 8P1) 2 + 9 + 19 = 30
10/22 Sunday
10:30 St. Albert (T8N 6A7) 4 + 0 + 8 = 12
11:00 Calgary (T2G 5A6) 5 + 7 + 4 = 16
12:00 Camrose (T4V 1R1) 0 + 2 + 6 = 8
12:00 Whitecourt (T7S 1A4) 4 + 1 + 4 = 9
1:30 St. Albert (T8N 6A7) 2 + 2 + 6 = 10
2:00 Edmonton (T5J 3K1) 0 + 2 + 7 = 9
2:00 Calgary (T2E 8P1) 6 + 14 + 15 = 35
10/23 Monday
5:45 Edmonton (T5E 4C3) 0 + 0 + 8 = 8
10/28 Saturday
10:00 WETASKIWIN (T9A3P5) 12 + 4 + 8 = 24
10:00 Calgary (T2H 0W5) 1 + 1 + 10 = 12
10:00 Edmonton (T6E 2X4) 1 + 0 + 7 = 8
10:30 St. Albert (T8N 6A7) 7 + 0 + 8 = 15
12:00 Edmonton (T6E 2X4) 0 + 0 + 8 = 8
4:00 WETASKIWIN (T9A3P5) 8 + 6 + 10 = 24
10/29 Sunday
11:00 Lloydminster (T9V 2H3) 1 + 1 + 12 = 14
12:00 Red Deer (T4N 1T1) 8 + 4 + 18 = 30
Arizona
10/21 Saturday
11:00 Tucson (85719) 1 + 9 + 27 = 37
12:00 Chandler, (85226) 2 + 1 + 21 = 24
12:00 Gilbert (85234) 4 + 6 + 24 = 34
2:30 Chandler, (85226) 0 + 0 + 12 = 12
2:30 Avondale (85323) 0 + 1 + 15 = 16
4:00 Tempe (85281) 0 + 1 + 23 = 24
10/22 Sunday
10:00 Tempe (85282) 0 + 4 + 8 = 12
11:00 Phoenix (85020) 3 + 2 + 19 = 24
11:00 Glendale (85306) 3 + 1 + 23 = 27
1:00 Tempe (85282) 2 + 6 + 10 = 18
4:00 Yuma (85364) 0 + 0 + 8 = 8
10/24 Tuesday
5:30 Mesa (85204) 0 + 1 + 19 = 20
10/27 Friday
5:00 Phoenix (85044) 2 + 5 + 9 = 16
10/28 Saturday
11:00 Tempe (85282) 1 + 9 + 15 = 25
2:00 Phoenix (85013) 0 + 0 + 15 = 15
5:00 Phoenix (85013) 0 + 0 + 8 = 8
10/29 Sunday
2:00 Glendale (85307) 2 + 6 + 15 = 23
Arkansas
10/21 Saturday
9:00 Fayetteville (72704) 0 + 0 + 8 = 8
12:00 Van Buren (72956) 1 + 1 + 11 = 13
10/22 Sunday
11:30 Cabot (72023) 3 + 2 + 25 = 30
10/28 Saturday
2:00 Sherwood (72120) 1 + 4 + 11 = 16
10/29 Sunday
12:00 Russellville (72801) 1 + 1 + 17 = 19
12:15 Rogers (72756) 1 + 2 + 6 = 9
British Columbia
10/21 Saturday
10:00 Mission (V2V1E4) 5 + 0 + 7 = 12
10:30 Mission (V2V-1G7) 4 + 1 + 3 = 8
11:00 Abbotsford (V2S2G7) 1 + 2 + 10 = 13
11:00 Abbotsford (V253X8) 7 + 2 + 7 = 16
11:00 Vancouver (V5R 5W2) 0 + 6 + 20 = 26
11:00 Abbotsford (V2S2G7) 1 + 3 + 8 = 12
2:30 Abbotsford (V2S2G7) 2 + 3 + 12 = 17
10/22 Sunday
11:00 Abbotsford (V2S2G7) 3 + 2 + 9 = 14
12:00 Fort Nelson (V0C 1R0) 2 + 2 + 4 = 8
12:00 Surrey (V3T2W1) 6 + 5 + 15 = 26
1:00 Fort St. John (V1J 1Y7) 1 + 2 + 10 = 13
1:00 Vancouver (V5K 1Z9) 2 + 7 + 13 = 22
1:30 Abbotsford (V253X8) 15 + 3 + 12 = 30
10/23 Monday
4:30 Richmond (V6X 0J8) 0 + 1 + 17 = 18
10/24 Tuesday
4:00 Abbotsford (V2S2G7) 3 + 3 + 9 = 15
10/27 Friday
4:00 Burnaby (V5H 2C3) 2 + 2 + 7 = 11
5:00 Nanaimo (V9T4K6) 3 + 6 + 31 = 40
10/28 Saturday
11:00 Vancouver (V5R 5W2) 0 + 1 + 10 = 11
1:00 Langley (V4W1L3) 7 + 8 + 9 = 24
10/29 Sunday
11:15 Port Coquitlam (V3B 3N4) 2 + 7 + 12 = 21
1:00 Langley (V4W1L3) 3 + 3 + 5 = 11
California
10/20 Friday
11:00 Los Angeles (90036) 4 + 0 + 37 = 41
10/21 Saturday
Northridge (91324) 1 + 6 + 25 = 32
Winnetka (91306) 2 + 2 + 23 = 27
9:00 Concord (94521) 1 + 1 + 14 = 16
10:00 Roseville (95661) 2 + 5 + 13 = 20
10:00 Glendale (91203) 5 + 10 + 58 = 73
10:00 San Diego (92126) 7 + 7 + 23 = 37
11:00 South Gate (90280) 1 + 2 + 14 = 17
11:00 Northridge (91324) 2 + 2 + 11 = 15
11:00 Montclair (91763) 1 + 3 + 4 = 8
11:30 Hesperia (92345) 4 + 3 + 14 = 21
11:30 Hesperia (92345) 4 + 4 + 17 = 25
12:00 San Dimas (91773) 6 + 1 + 4 = 11
12:00 Modesto (95350) 4 + 2 + 22 = 28
12:00 Vacaville (95688) 1 + 1 + 9 = 11
12:00 Westminster (92683) 0 + 0 + 10 = 10
12:00 ventura (93003) 1 + 1 + 8 = 10
12:00 Merced (95340) 1 + 2 + 13 = 16
12:00 Fountain Valley (92708) 6 + 7 + 23 = 36
12:30 Salinas (93906) 3 + 3 + 8 = 14
1:00 Riverside (92503) 2 + 1 + 25 = 28
1:30 Elk Grove (95624) 8 + 20 + 57 = 85
2:00 Baldwin Park (91706) 2 + 2 + 42 = 46
2:30 Northridge (91324) 0 + 1 + 7 = 8
3:00 South Gate (90280) 3 + 3 + 4 = 10
3:00 Los Angeles (90036) 2 + 4 + 23 = 29
3:00 Montclair (91763) 2 + 1 + 6 = 9
5:00 Riverside (92503) 6 + 4 + 28 = 38
11:30 Temecula (92591) 3 + 4 + 22 = 29
10/22 Sunday
10:00 Pasadena (91105) 2 + 6 + 33 = 41
10:00 Lancaster (93534) 3 + 3 + 17 = 23
10:00 Temecula (92592) 0 + 2 + 14 = 16
10:00 santa clara (95050) 12 + 6 + 29 = 47
11:00 Lemon Grove (91945) 3 + 4 + 13 = 20
11:00 Folsom (95630) 3 + 0 + 13 = 16
11:00 Northridge (91324) 1 + 4 + 10 = 15
11:00 Berkeley (94704) 2 + 9 + 27 = 38
11:30 Hesperia (92345) 0 + 3 + 6 = 9
11:30 Temecula (92591) 7 + 6 + 27 = 40
12:00 Los Angeles (90045) 0 + 5 + 28 = 33
12:00 Montclair (91763) 3 + 4 + 9 = 16
12:00 Chatsworth (91311) 0 + 2 + 8 = 10
12:00 Santa Monica (90401) 3 + 4 + 2 = 9
12:00 Fountain Valley (92708) 2 + 5 + 9 = 16
12:30 Eureka (95501) 2 + 3 + 8 = 13
1:00 Oceanside (92058) 6 + 12 + 25 = 43
1:00 Westminster (92683) 5 + 5 + 14 = 24
2:00 Montclair (91763) 2 + 2 + 4 = 8
3:30 Fremont (94536) 3 + 5 + 15 = 23
4:00 Los Angeles (90045) 0 + 4 + 19 = 23
4:00 Temecula (92591) 1 + 1 + 6 = 8
10/24 Tuesday
9:00 San Mateo (94403) 0 + 3 + 6 = 9
11:00 SACRAMENTO (95833) 1 + 0 + 16 = 17
10/28 Saturday
9:00 Northridge (91324) 0 + 1 + 7 = 8
10:00 Concord (94520) 0 + 0 + 10 = 10
10:00 Berkeley (94704) 3 + 1 + 25 = 29
10:00 Bakersfield (93311) 1 + 8 + 8 = 17
10:30 Bakersfield (93311) 1 + 3 + 10 = 14
11:00 Norwalk (90650) 2 + 2 + 14 = 18
11:00 Northridge (91324) 3 + 1 + 7 = 11
11:00 Winnetka (91306) 0 + 2 + 8 = 10
11:30 Elk Grove (95624) 1 + 2 + 15 = 18
11:30 San Francisco (94117) 6 + 3 + 8 = 17
12:00 Santa Clara (95050) 6 + 2 + 21 = 29
12:00 Westminster (92683) 0 + 0 + 8 = 8
12:00 Fountain Valley (92708) 3 + 2 + 20 = 25
12:30 Arcata (95521) 2 + 1 + 5 = 8
1:00 Santa Maria (93454) 1 + 0 + 7 = 8
1:00 Sunnyvale (94087) 0 + 1 + 7 = 8
2:00 San Francisco (94117) 2 + 2 + 4 = 8
2:30 Santa Clara (95050) 1 + 0 + 11 = 12
5:00 Riverside (92503) 1 + 3 + 10 = 14
10/29 Sunday
Lower Lake (95457) 2 + 2 + 6 = 10
11:00 Northridge (91324) 0 + 0 + 8 = 8
11:00 Winnetka (91306) 1 + 3 + 13 = 17
11:00 Burlingame (94010) 3 + 1 + 10 = 14
11:30 Hesperia (92345) 3 + 5 + 14 = 22
11:30 Temecula (92591) 3 + 2 + 6 = 11
12:00 La Habra (90631) 0 + 1 + 12 = 13
12:00 Montclair (91763) 2 + 1 + 7 = 10
1:00 Oceanside (92058) 3 + 6 + 13 = 22
1:00 Manteca (95337) 1 + 2 + 6 = 9
2:00 Montclair (91763) 1 + 1 + 6 = 8
2:00 Burlingame (94010) 2 + 1 + 8 = 11
2:30 Northridge (91324) 1 + 2 + 8 = 11
Colorado
10/21 Saturday
Johnstown (80534) 3 + 7 + 32 = 42
9:00 Colorado Springs (80918) 8 + 5 + 33 = 46
9:00 Colorado Springs (80918) 4 + 1 + 15 = 20
10:00 Northglenn (80234) 0 + 1 + 17 = 18
11:00 pueblo (81001) 2 + 2 + 11 = 15
11:00 Greeley (80631) 0 + 2 + 9 = 11
3:00 Littleton (80123) 1 + 3 + 9 = 13
3:00 pueblo (81001) 0 + 3 + 11 = 14
3:00 Johnstown (80534) 5 + 3 + 9 = 17
4:00 Arvada (80003) 1 + 1 + 12 = 14
5:00 Fort Collins (80526) 1 + 0 + 7 = 8
10/22 Sunday
10:00 Denver (80203) 0 + 7 + 18 = 25
1:00 Denver (80231) 1 + 3 + 13 = 17
1:00 Littleton (80123) 2 + 9 + 14 = 25
1:00 Fort Collins (80526) 8 + 5 + 8 = 21
10/24 Tuesday
7:00 Johnstown (80534) 3 + 1 + 5 = 9
10/28 Saturday
10:00 Colorado Springs (80918) 2 + 3 + 23 = 28
11:00 Aurora (80014) 2 + 3 + 11 = 16
3:00 Johnstown (80534) 2 + 4 + 8 = 14
5:30 Fort Collins (80526) 2 + 0 + 10 = 12
10/29 Sunday
9:00 Fort Collins (80526) 2 + 1 + 5 = 8
1:00 Greeley (80631) 1 + 1 + 6 = 8
1:00 Fort Collins (80526) 3 + 7 + 10 = 20
3:00 Fort Collins (80526) 3 + 0 + 5 = 8
Connecticut
10/21 Saturday
12:00 Newington (06111) 6 + 1 + 13 = 20
10/22 Sunday
9:30 Danbury (06810) 1 + 3 + 4 = 8
11:00 Enfield (06082) 3 + 4 + 12 = 19
1:00 Danbury (06810) 2 + 3 + 6 = 11
2:15 Enfield (06082) 4 + 2 + 12 = 18
10/28 Saturday
11:00 Manchester (06040) 4 + 5 + 18 = 27
Delaware
10/21 Saturday
1:00 Smyrna (19977) 1 + 2 + 14 = 17
10/29 Sunday
11:00 Wilmington (19810) 3 + 2 + 20 = 25
2:00 Wilmington (19810) 10 + 5 + 20 = 35
District of Columbia
10/29 Sunday
12:00 Washington (20003) 3 + 3 + 12 = 18
Florida
10/20 Friday
10:00 Orlando (32828) 2 + 4 + 28 = 34
10/21 Saturday
9:00 Orlando (32828) 2 + 12 + 18 = 32
10:00 Miami (33174) 0 + 1 + 15 = 16
10:00 Auburndale (33823) 3 + 4 + 11 = 18
11:00 Orlando (32828) 2 + 5 + 12 = 19
11:00 Sanford (32771) 1 + 2 + 5 = 8
11:00 Cape Coral (33990) 6 + 4 + 24 = 34
11:00 Plantation (33317) 2 + 3 + 12 = 17
11:00 Tampa (33617) 5 + 0 + 23 = 28
12:00 Orlando (32828) 0 + 3 + 5 = 8
1:30 Palm Bay (32905) 0 + 1 + 7 = 8
2:00 Pinellas Park (33781) 3 + 3 + 13 = 19
2:00 Ocala (34471) 2 + 3 + 10 = 15
3:30 Davie (33024) 0 + 6 + 25 = 31
6:00 Jacksonville (32205) 3 + 5 + 21 = 29
10/22 Sunday
10:00 Coconut Creek (33073) 1 + 0 + 16 = 17
10:00 Miami (33174) 1 + 0 + 13 = 14
11:00 Tallahassee (32303) 1 + 2 + 18 = 21
11:00 Tampa (33614) 1 + 4 + 7 = 12
11:00 Orlando (32803) 5 + 2 + 29 = 36
11:00 Pensacola (32504) 1 + 2 + 11 = 14
12:00 Kissimmee (34741) 0 + 0 + 18 = 18
12:00 Sarasota (34232) 1 + 7 + 9 = 17
1:00 Jensen beach (34957) 1 + 1 + 8 = 10
2:30 Tallahassee (32303) 0 + 1 + 9 = 10
2:30 Fort Myers (33908) 2 + 3 + 18 = 23
10/23 Monday
5:30 Orlando (32828) 0 + 1 + 8 = 9
9:30 Orlando (32828) 1 + 0 + 8 = 9
10/24 Tuesday
6:00 Tampa (33611) 0 + 1 + 7 = 8
10/25 Wednesday
5:00 Orlando (32837) 2 + 10 + 22 = 34
5:00 Cape Coral (33990) 1 + 0 + 12 = 13
10/26 Thursday
5:00 Tampa (33619) 2 + 0 + 15 = 17
10/27 Friday
7:00 Kissimmee (34741) 0 + 0 + 20 = 20
10/28 Saturday
Palm Harbor (34684) 4 + 3 + 15 = 22
10:00 West Palm Beach (33409) 1 + 2 + 7 = 10
10:30 Tampa (33647) 3 + 1 + 4 = 8
11:00 Port St John (32927) 0 + 1 + 7 = 8
11:00 Cape Coral (33990) 4 + 3 + 7 = 14
11:00 Plantation (33317) 0 + 1 + 8 = 9
11:30 Maitland (32751) 9 + 20 + 23 = 52
12:00 Clermont (34711) 3 + 2 + 4 = 9
2:00 Ocala (34471) 1 + 1 + 14 = 16
5:00 Pensacola (32504) 0 + 0 + 8 = 8
6:00 Winter Park (32792) 0 + 4 + 13 = 17
10/29 Sunday
10:00 West Palm Beach (33409) 3 + 1 + 17 = 21
11:00 Tallahassee (32303) 0 + 2 + 7 = 9
11:00 Orlando (32803) 3 + 1 + 13 = 17
11:00 Jacksonville (32216) 1 + 7 + 6 = 14
11:00 Hollywood (33024) 1 + 2 + 14 = 17
4:00 Naples (34116) 0 + 3 + 5 = 8
Georgia
10/21 Saturday
Duluth (30096) 1 + 3 + 15 = 19
12:01 Macon (31206) 0 + 0 + 12 = 12
11:00 Cumming (30040) 2 + 4 + 11 = 17
11:00 Warner Robins (31088) 1 + 5 + 9 = 15
12:00 COLUMBUS (31909) 3 + 3 + 3 = 9
12:00 Roswell (30075) 6 + 4 + 4 = 14
12:00 Newnan (30263) 3 + 1 + 4 = 8
12:00 Kennesaw (30144) 2 + 9 + 43 = 54
12:00 Columbus (31909) 6 + 2 + 8 = 16
12:00 Duluth (30096) 2 + 5 + 12 = 19
12:30 Valdosta (31601) 2 + 3 + 13 = 18
3:15 Macon (31206) 3 + 2 + 13 = 18
11:15 COLUMBUS (31909) 1 + 1 + 8 = 10
10/22 Sunday
10:00 Roswell (30076) 1 + 5 + 13 = 19
12:00 Kennesaw (30144) 2 + 7 + 41 = 50
1:00 Columbus (31909) 1 + 0 + 7 = 8
2:30 Roswell (30076) 1 + 9 + 12 = 22
10/23 Monday
5:00 Columbus (31909) 1 + 4 + 3 = 8
10/24 Tuesday
6:00 Kennesaw (30144) 4 + 5 + 31 = 40
10/25 Wednesday
6:00 Roswell (30075) 5 + 2 + 1 = 8
10/26 Thursday
5:00 Valdosta (31601) 0 + 0 + 10 = 10
10/28 Saturday
10:00 Braselton (30542) 2 + 3 + 11 = 16
11:30 Valdosta (31601) 0 + 0 + 10 = 10
12:00 Athens (30606) 2 + 4 + 4 = 10
12:00 Roswell (30076) 0 + 3 + 5 = 8
12:00 Kennesaw (30144) 3 + 6 + 35 = 44
12:30 Augusta (30907) 3 + 5 + 23 = 31
1:30 Valdosta (31601) 0 + 0 + 8 = 8
2:00 Woodstock (30188) 2 + 4 + 6 = 12
3:15 Macon (31206) 0 + 1 + 10 = 11
5:00 Valdosta (31601) 0 + 0 + 8 = 8
10/29 Sunday
12:00 Kennesaw (30144) 4 + 3 + 26 = 33
Hawaii
10/21 Saturday
12:00 Honolulu (96826) 2 + 4 + 17 = 23
3:00 Honolulu (96826) 0 + 3 + 11 = 14
10/22 Sunday
12:00 Honolulu (96826) 1 + 1 + 9 = 11
3:00 Honolulu (96826) 1 + 4 + 6 = 11
10/28 Saturday
12:00 Honolulu (96817) 4 + 4 + 12 = 20
10/29 Sunday
12:00 Honolulu (96826) 0 + 3 + 5 = 8
3:00 Honolulu (96826) 0 + 0 + 8 = 8
Idaho
10/21 Saturday
11:00 Meridian (83642) 3 + 5 + 19 = 27
10/25 Wednesday
6:00 Moscow (83843) 0 + 1 + 11 = 12
10/29 Sunday
10:00 Boise (83709) 2 + 2 + 7 = 11
1:00 Twin Falls (83301) 1 + 1 + 10 = 12
Illinois
10/20 Friday
9:00 Carbondale (62901) 0 + 1 + 7 = 8
10/21 Saturday
Berwyn (60402) 1 + 2 + 43 = 46
Chicago (60641) 0 + 0 + 13 = 13
2:00 Rockford (61108) 0 + 0 + 8 = 8
11:00 Chicago (60618) 10 + 5 + 1 = 16
11:00 Elmhurst (60126) 2 + 3 + 10 = 15
11:00 Berwyn (60402) 3 + 6 + 21 = 30
12:00 Chicago (60614) 0 + 0 + 10 = 10
12:30 Chicago (60641) 1 + 1 + 13 = 15
1:00 Crystal Lake (60014) 8 + 3 + 13 = 24
1:00 Brookfield (60513) 4 + 1 + 3 = 8
1:25 Glenview (60025) 2 + 7 + 6 = 15
2:00 Antioch (60002) 0 + 2 + 8 = 10
2:00 Chicago (60618) 0 + 0 + 16 = 16
3:00 Frankfort (60423) 0 + 1 + 8 = 9
4:00 Washington (61571) 2 + 1 + 13 = 16
4:00 Rockford (61108) 1 + 1 + 9 = 11
7:00 Rockford (61108) 0 + 1 + 7 = 8
11:00 Rockford (61108) 0 + 0 + 13 = 13
10/22 Sunday
Edwardsville (62025) 2 + 2 + 11 = 15
11:00 Rockford (61108) 2 + 2 + 5 = 9
11:00 Berwyn (60402) 17 + 5 + 14 = 36
12:00 Collinsville (62234) 0 + 5 + 23 = 28
12:00 Chicago (60614) 2 + 1 + 8 = 11
12:00 Skokie (60077) 4 + 6 + 6 = 16
12:00 Buffalo Grove (60089) 3 + 6 + 8 = 17
12:30 Chicago (60641) 0 + 0 + 9 = 9
3:00 Berwyn (60402) 2 + 0 + 20 = 22
10/23 Monday
5:00 Niles (60714) 8 + 7 + 22 = 37
10/24 Tuesday
5:00 Collinsville (62234) 0 + 2 + 15 = 17
5:00 Chicago (60618) 2 + 0 + 9 = 11
5:00 Niles (60714) 4 + 1 + 9 = 14
10/25 Wednesday
4:00 Loves Park (61111) 0 + 0 + 9 = 9
6:30 Chicago (60641) 1 + 0 + 10 = 11
10/26 Thursday
5:00 Berwyn (60402) 2 + 0 + 10 = 12
10/27 Friday
6:30 Chicago (60641) 0 + 0 + 10 = 10
10/28 Saturday
9:00 Loves Park (61111) 0 + 0 + 9 = 9
11:00 Chicago (60611) 1 + 1 + 6 = 8
11:00 Berwyn (60402) 3 + 2 + 6 = 11
12:00 Loves Park (61111) 3 + 2 + 19 = 24
12:30 Downers Grove (60515) 5 + 2 + 9 = 16
1:00 Glenview (60025) 2 + 6 + 8 = 16
2:00 Collinsville (62234) 0 + 4 + 17 = 21
2:00 Antioch (60002) 0 + 0 + 8 = 8
3:00 Frankfort (60423) 0 + 3 + 17 = 20
3:00 Berwyn (60402) 2 + 3 + 4 = 9
4:00 Loves Park (61111) 0 + 1 + 8 = 9
10/29 Sunday
Edwardsville (62025) 0 + 0 + 11 = 11
Edwardsville (62025) 4 + 3 + 0 = 8
11:00 Berwyn (60402) 1 + 5 + 5 = 11
12:00 Bloomington (61701) 4 + 5 + 14 = 24
12:00 Buffalo Grove (60089) 1 + 9 + 12 = 22
2:00 Antioch (60002) 0 + 0 + 12 = 12
3:00 Berwyn (60402) 3 + 3 + 9 = 15
Indiana
10/21 Saturday
10:00 Indianapolis (46227) 1 + 1 + 21 = 23
12:00 Anderson (46013) 0 + 2 + 9 = 11
1:00 Indianapolis (46227) 5 + 2 + 24 = 31
2:00 Indianapolis (46225) 1 + 0 + 7 = 8
3:00 Indianapolis (46268) 3 + 4 + 7 = 14
5:00 Evansville (47711) 1 + 4 + 11 = 16
6:00 Hobart (46342) 1 + 3 + 10 = 14
6:00 Evansville (47711) 1 + 4 + 14 = 19
10/22 Sunday
11:00 Fort Wayne (46804) 1 + 6 + 10 = 17
12:00 Bloomington (47404) 3 + 4 + 5 = 12
12:00 Evansville (47711) 1 + 5 + 14 = 20
12:00 Indianapolis (46227) 0 + 2 + 10 = 12
1:00 South Bend (46637) 2 + 8 + 8 = 18
1:00 Evansville (47711) 1 + 4 + 16 = 21
1:00 Indianapolis (46236) 4 + 2 + 6 = 12
10/23 Monday
5:00 Indianapolis (46227) 2 + 3 + 17 = 22
10/24 Tuesday
5:00 Mooresville (46158) 3 + 5 + 4 = 12
10/26 Thursday
4:30 Valparaiso (46383) 3 + 5 + 11 = 19
10/27 Friday
5:00 Evansville (47711) 2 + 3 + 10 = 15
6:00 Evansville (47711) 2 + 6 + 13 = 21
10/28 Saturday
10:00 Indianapolis (46227) 1 + 1 + 6 = 8
10:30 Indianapolis (46250) 2 + 10 + 20 = 32
11:00 Greenfield (46140) 1 + 0 + 7 = 8
1:00 Indianapolis (46225) 0 + 1 + 7 = 8
5:00 Evansville (47711) 2 + 3 + 16 = 21
6:00 Evansville (47711) 3 + 4 + 14 = 21
10/29 Sunday
9:00 Muncie (47303) 0 + 4 + 15 = 19
11:00 Fort Wayne (46804) 3 + 4 + 5 = 12
12:00 Evansville (47711) 0 + 3 + 9 = 12
12:00 Indianapolis (46227) 2 + 1 + 7 = 10
1:00 Indianapolis (46250) 5 + 8 + 21 = 34
1:00 Evansville (47711) 0 + 3 + 11 = 14
1:00 Indianapolis (46236) 3 + 1 + 4 = 8
2:00 Evansville (47711) 2 + 5 + 16 = 23
Iowa
10/22 Sunday
11:00 Des Moines (50325) 7 + 11 + 26 = 44
Kansas
10/20 Friday
2:30 Lenexa (66210) 1 + 2 + 6 = 9
10/21 Saturday
12:01 Lenexa (66210) 1 + 1 + 24 = 26
12:15 Lenexa (66210) 1 + 3 + 11 = 15
2:00 Leavenworth (66048) 2 + 8 + 3 = 13
10/22 Sunday
11:30 Mission (66205) 3 + 0 + 5 = 8
12:15 Lenexa (66210) 0 + 4 + 12 = 16
Kentucky
10/21 Saturday
12:00 Middlesboro (40965) 0 + 1 + 7 = 8
1:00 Winchester (40391) 3 + 3 + 6 = 12
10/28 Saturday
Louisville (40299) 1 + 7 + 14 = 22
4:00 Highland Heights (41076) 1 + 2 + 29 = 32
Louisiana
10/21 Saturday
11:00 Prairieville (70769) 1 + 3 + 10 = 14
5:00 Metairie (70003) 0 + 3 + 19 = 22
10/22 Sunday
12:00 Baton Rouge (70817) 5 + 0 + 14 = 19
12:00 Shreveport (71105) 3 + 2 + 21 = 26
2:00 Alexandria (71301) 1 + 0 + 12 = 13
10/29 Sunday
12:00 Lafayette (70503) 0 + 0 + 16 = 16
12:00 Shreveport (71105) 4 + 3 + 13 = 20
2:00 Alexandria (71301) 1 + 0 + 8 = 9
Maine
10/21 Saturday
11:00 Presque Isle (04769) 0 + 0 + 19 = 19
11:00 Augusta (04330) 5 + 4 + 8 = 17
11:00 Augusta (04330) 3 + 6 + 6 = 15
10/22 Sunday
12:00 Westbrook (04092) 3 + 10 + 7 = 20
Manitoba
10/21 Saturday
11:00 Winnipeg (R3L2C2) 3 + 1 + 7 = 11
11:00 Winnipeg (R2V 3C8) 2 + 3 + 9 = 14
11:00 Winnipeg (R2V 3C8) 0 + 4 + 8 = 12
11:00 Winnipeg (R2G 1L4) 1 + 4 + 18 = 23
12:00 Winnipeg (R3T2C5) 1 + 1 + 14 = 16
Maryland
10/21 Saturday
10:00 glen burnie (21061) 4 + 1 + 11 = 16
12:00 Abingdon (21009) 1 + 2 + 12 = 15
10/22 Sunday
11:00 Rockville (20852) 4 + 9 + 20 = 33
12:00 California (20619) 3 + 1 + 4 = 8
12:00 Hunt Valley ( 21030) 6 + 4 + 12 = 22
10/29 Sunday
11:00 Rockville (20852) 7 + 6 + 21 = 34
12:00 California (20619) 4 + 7 + 9 = 20
12:00 Hunt Valley ( 21030) 6 + 7 + 8 = 21
2:00 Rockville (20852) 2 + 0 + 12 = 14
Massachusetts
10/21 Saturday
9:30 Lexington (02421) 8 + 3 + 6 = 17
10:00 CARVER (02330) 3 + 3 + 6 = 12
12:00 New Bedford (02746) 1 + 5 + 13 = 19
1:30 Somerville (02144) 5 + 3 + 17 = 25
10/22 Sunday
11:00 Brookline (02446) 4 + 2 + 7 = 13
11:00 Hadley (01035) 5 + 0 + 12 = 17
11:30 Saugus (01906) 1 + 2 + 11 = 14
10/28 Saturday
10:00 Tewksbury (01876) 4 + 6 + 23 = 33
11:30 Abington (02351) 3 + 3 + 9 = 15
10/29 Sunday
11:30 Norton (02766) 3 + 3 + 10 = 16
4:00 BROCKTON (02302) 2 + 2 + 9 = 13
Michigan
10/21 Saturday
Bay City (48706) 1 + 0 + 8 = 9
9:00 Ludington (49431) 0 + 5 + 7 = 12
10:00 Kentwood (49512) 2 + 4 + 17 = 23
10:00 Shelby charter township (48317) 5 + 1 + 20 = 26
11:00 Jackson (49201) 2 + 5 + 9 = 16
11:00 Garden City (48135) 1 + 4 + 10 = 15
12:00 Clinton Township (48038) 2 + 1 + 17 = 20
12:00 Howell (48843) 0 + 1 + 14 = 15
2:30 Clinton Township (48038) 1 + 1 + 16 = 18
4:30 Clinton Township (48038) 0 + 0 + 10 = 10
10/22 Sunday
12:00 Kentwood (49512) 1 + 3 + 8 = 12
2:00 Livonia (48154) 4 + 0 + 13 = 17
10/25 Wednesday
4:00 Kentwood (49512) 4 + 1 + 12 = 17
10/28 Saturday
11:00 East Lansing (48823) 2 + 3 + 6 = 11
11:30 Tecumseh (49286) 0 + 1 + 9 = 10
12:00 Flint (48507) 2 + 3 + 30 = 35
12:00 Battle Creek (49015) 2 + 4 + 8 = 14
12:00 Clinton Township (48038) 0 + 1 + 14 = 15
12:00 Howell (48843) 7 + 5 + 12 = 24
12:00 Grand Rapids (49534) 2 + 1 + 22 = 25
1:00 Westland (48185) 3 + 4 + 3 = 10
3:00 Grand Rapids (49534) 0 + 0 + 17 = 17
3:00 Garden City (48135) 1 + 1 + 23 = 25
4:30 Clinton Township (48038) 0 + 4 + 5 = 9
10/29 Sunday
2:00 Livonia (48154) 1 + 3 + 7 = 11
Minnesota
10/21 Saturday
10:00 Roseville (55113) 10 + 13 + 28 = 51
10:00 Morris (56267) 2 + 9 + 12 = 23
10:00 Duluth (55807) 6 + 8 + 19 = 33
11:00 Winona (55987) 2 + 1 + 5 = 8
11:00 Mankato (56001) 7 + 2 + 8 = 17
11:00 Northfield (55057) 2 + 6 + 9 = 17
12:00 Waite Park (56387) 1 + 0 + 12 = 13
12:00 Burnsville (55306) 5 + 13 + 19 = 37
1:30 Roseville (55113) 1 + 7 + 8 = 16
4:00 Maplewood (55109) 2 + 2 + 18 = 22
10/22 Sunday
12:00 Saint Louis Park (55426) 4 + 12 + 18 = 34
10/25 Wednesday
6:00 Columbia Heights (55421) 1 + 2 + 8 = 11
10/28 Saturday
11:00 Winona (55987) 0 + 3 + 9 = 12
11:00 South St Paul (55075) 1 + 5 + 23 = 29
12:00 Minneapolis (55406) 4 + 4 + 8 = 16
4:30 Moorhead (56560) 0 + 2 + 6 = 8
Mississippi
10/21 Saturday
11:00 Gautier (39553) 7 + 3 + 38 = 48
2:00 Pearl (39208) 0 + 1 + 15 = 16
5:00 Pearl (39208) 3 + 0 + 5 = 8
10/22 Sunday
12:00 Gautier (39553) 1 + 0 + 7 = 8
2:30 Pearl (39208) 0 + 0 + 12 = 12
10/28 Saturday
2:00 Pearl (39208) 1 + 3 + 5 = 9
5:00 Pearl (39208) 0 + 1 + 7 = 8
10/29 Sunday
12:00 Tupelo (38804) 2 + 0 + 22 = 24
Missouri
10/21 Saturday
Crestwood (63126) 2 + 3 + 37 = 42
12:01 Independence (64050-3705) 0 + 3 + 15 = 18
9:00 West Plains (65775) 3 + 3 + 6 = 12
12:00 West Plains (65775) 3 + 3 + 6 = 12
12:00 ofallon (63366) 1 + 15 + 11 = 27
12:00 Springfield (65804) 4 + 6 + 11 = 21
12:15 Independence (64050-3705) 3 + 3 + 18 = 24
12:30 Crestwood (63126) 2 + 4 + 7 = 13
1:30 Sedalia (65301) 3 + 3 + 22 = 28
3:30 Crestwood (63126) 1 + 3 + 7 = 11
6:00 Springfield (65804) 2 + 3 + 13 = 18
10/22 Sunday
12:00 Springfield (65804) 0 + 0 + 11 = 11
12:00 Springfield (65804) 3 + 5 + 7 = 15
12:30 Crestwood (63126) 1 + 2 + 9 = 12
1:00 Sedalia (65301) 2 + 3 + 20 = 25
1:15 Independence (64050-3705) 0 + 0 + 12 = 12
10/23 Monday
5:00 St. Charles (63303) 3 + 1 + 8 = 12
10/24 Tuesday
6:30 St. Peters (63376) 0 + 4 + 6 = 10
10/25 Wednesday
6:30 Crestwood (63126) 1 + 3 + 19 = 23
10/27 Friday
9:00 St. Charles (63303) 3 + 2 + 4 = 9
10/28 Saturday
9:00 West Plains (65775) 1 + 1 + 6 = 8
12:00 West Plains (65775) 4 + 2 + 7 = 13
12:00 Springfield (65804) 0 + 2 + 7 = 9
12:00 St. Louis (63128) 3 + 6 + 4 = 13
6:00 Springfield (65804) 0 + 2 + 12 = 14
10/29 Sunday
12:00 Columbia (65203) 7 + 5 + 4 = 16
Montana
10/21 Saturday
11:00 Great Falls (59401) 1 + 1 + 14 = 16
11:00 Missoula (59801) 4 + 0 + 15 = 19
10/28 Saturday
11:00 Great Falls (59401) 1 + 1 + 6 = 8
11:00 Missoula (59801) 5 + 0 + 7 = 12
Nebraska
10/21 Saturday
10:00 McCook (69001) 3 + 0 + 5 = 8
11:00 Omaha (68144) 5 + 5 + 11 = 21
3:00 Omaha (68144) 1 + 3 + 7 = 11
10/22 Sunday
12:00 Omaha (68164) 8 + 6 + 22 = 36
12:00 Kearney (68845) 3 + 3 + 10 = 16
1:00 Lincoln (68506) 7 + 5 + 11 = 23
3:00 Omaha (68164) 2 + 2 + 12 = 16
10/24 Tuesday
12:00 Bellevue (68005) 6 + 5 + 22 = 33
Nevada
10/21 Saturday
10:00 Las Vegas (89147) 0 + 0 + 28 = 28
12:00 Las Vegas (89146) 1 + 4 + 11 = 16
10/22 Sunday
10:00 Las Vegas (89147) 1 + 1 + 7 = 9
11:00 Reno (89502) 0 + 1 + 9 = 10
1:00 Las Vegas (89121) 0 + 4 + 35 = 39
10/28 Saturday
10:00 Las Vegas (89147) 0 + 1 + 8 = 9
12:00 Las Vegas (89146) 1 + 2 + 5 = 8
10/29 Sunday
1:00 Las Vegas (89121) 2 + 6 + 79 = 87
New Brunswick
10/21 Saturday
11:00 Moncton (E1C2N4) 2 + 4 + 11 = 17
11:00 Saint John (E2L2H3) 4 + 10 + 19 = 33
11:30 Saint John (E2M 7X1) 3 + 2 + 15 = 20
10/28 Saturday
11:30 Saint John (E2M 7X1) 0 + 1 + 8 = 9
10/29 Sunday
12:30 Fredericton (E3B 3B9) 2 + 2 + 17 = 21
New Hampshire
10/21 Saturday
9:00 Nashua (03063) 0 + 5 + 3 = 8
10:00 Londonderry (03053) 1 + 5 + 19 = 25
10:00 Nashua (03063) 1 + 9 + 10 = 20
10/22 Sunday
10:00 Rochester (03867) 1 + 3 + 27 = 31
12:00 Manchester (03103) 3 + 2 + 11 = 16
10/29 Sunday
10:00 Lebanon (03766) 0 + 2 + 9 = 11
10:00 Nashua (03063) 2 + 2 + 16 = 20
New Jersey
10/21 Saturday
Clifton (07012 ) 0 + 3 + 23 = 26
9:00 Cedar Grove (07009) 6 + 9 + 41 = 56
10:00 Matawan (07747) 2 + 5 + 11 = 18
10:00 Scotch Plains (07076) 3 + 12 + 15 = 30
10:00 Hamilton (08619) 5 + 12 + 15 = 32
12:30 Livingston (07039) 10 + 12 + 9 = 31
2:00 Hamilton (08619) 2 + 5 + 8 = 15
10/22 Sunday
10:00 Randolph (07869) 1 + 5 + 16 = 22
10:30 Somerville (08876) 1 + 11 + 21 = 33
11:00 Hamilton (08619) 0 + 1 + 7 = 8
12:00 Medford (08055) 3 + 2 + 11 = 16
12:00 Boonton (07005) 3 + 3 + 16 = 22
12:30 Randolph (07869) 0 + 4 + 9 = 13
10/27 Friday
5:30 Boonton (07005) 8 + 7 + 14 = 29
10/28 Saturday
11:00 Egg Harbor Township (08234) 2 + 7 + 13 = 22
12:00 Franklin (07416) 0 + 2 + 7 = 9
12:00 Haddon Township (08108) 4 + 6 + 12 = 22
10/29 Sunday
9:00 Randolph (07869) 2 + 6 + 1 = 9
New Mexico
10/21 Saturday
10:00 Albuquerque (87106) 0 + 0 + 12 = 12
10/23 Monday
6:00 Albuquerque (87106) 0 + 0 + 9 = 9
10/28 Saturday
11:00 Albuquerque (87120) 1 + 1 + 9 = 11
New York
10/21 Saturday
9:00 massapequa park (11762) 1 + 2 + 9 = 12
10:00 Catskill (12414) 0 + 3 + 11 = 14
10:30 New York (10016) 4 + 4 + 15 = 23
11:00 Rochester (14623) 1 + 4 + 17 = 22
11:00 Brooklyn (11229) 2 + 3 + 9 = 14
11:00 Albany (12205) 2 + 4 + 6 = 12
11:00 Flushing (11354) 0 + 1 + 7 = 8
11:00 Watervilet (12189) 2 + 3 + 13 = 18
12:00 Wantagh (11793) 7 + 5 + 8 = 20
12:00 Rochester (14623) 7 + 10 + 27 = 44
12:00 West Babylon (11704) 1 + 2 + 17 = 20
12:30 Fredonia (14063) 0 + 2 + 8 = 10
1:00 Oneida (13421) 7 + 11 + 23 = 41
1:30 New York (10016) 0 + 3 + 19 = 22
2:00 CROTON ON HUDSON (10520) 5 + 9 + 13 = 27
2:30 Selden (11784) 1 + 2 + 18 = 21
2:30 Flushing (11354) 0 + 4 + 5 = 9
3:00 Brooklyn (11229) 1 + 0 + 8 = 9
3:00 West Babylon (11704) 1 + 2 + 10 = 13
4:30 Kenmore (14217) 1 + 2 + 13 = 16
10/22 Sunday
10:00 Catskill (12414) 3 + 2 + 5 = 10
11:00 Albany (12205) 1 + 4 + 16 = 21
11:00 Lynbrook (11563) 4 + 3 + 17 = 24
12:00 Rochester (14625) 3 + 4 + 10 = 17
1:00 Brooklyn (11231) 10 + 7 + 6 = 23
2:00 Hyde Park (12538) 3 + 1 + 14 = 18
2:00 Flushing (11354) 1 + 1 + 11 = 13
2:30 Selden (11784) 0 + 0 + 8 = 8
3:00 Lynbrook (11563) 1 + 1 + 6 = 8
10/23 Monday
6:00 Rochester (14623) 0 + 1 + 11 = 12
10/24 Tuesday
5:30 Fredonia (14063) 2 + 2 + 15 = 19
10/25 Wednesday
5:30 Selden (11784) 0 + 0 + 16 = 16
10/26 Thursday
5:30 Selden (11784) 0 + 0 + 14 = 14
6:00 Albany (12205) 1 + 2 + 18 = 21
10/27 Friday
5:00 derby (14047) 8 + 13 + 16 = 37
10/28 Saturday
Williamsville (14221) 1 + 1 + 48 = 50
10:30 New York (10016) 2 + 0 + 17 = 19
12:00 Brooklyn (11232) 0 + 0 + 11 = 11
12:00 East Greenbush (12061) 0 + 2 + 10 = 12
12:00 Nanuet (10954) 4 + 4 + 14 = 22
1:00 Johnson City (13790) 3 + 3 + 14 = 20
1:30 New York (10016) 0 + 2 + 13 = 15
2:00 CROTON ON HUDSON (10520) 2 + 6 + 16 = 24
4:00 West Babylon (11704) 1 + 0 + 12 = 13
4:30 Kenmore (14217) 2 + 1 + 9 = 12
5:00 Amsterdam (12010) 3 + 1 + 15 = 19
10/29 Sunday
11:00 poughkeepsie (12601) 7 + 11 + 6 = 24
12:00 Clifton Park (12065) 4 + 6 + 21 = 31
2:30 Selden (11784) 0 + 1 + 21 = 22
Newfoundland and Labrador
10/28 Saturday
12:00 Mount Pearl (A1N 1W3) 4 + 8 + 22 = 34
North Carolina
10/21 Saturday
Matthews (28105) 0 + 0 + 8 = 8
9:30 Cary (27511) 0 + 1 + 13 = 14
10:00 Hildebran (28637) 1 + 0 + 16 = 17
10:30 Charlotte (28214) 3 + 0 + 5 = 8
11:00 Greenville (27858) 2 + 2 + 11 = 15
11:00 Raleigh (27612) 2 + 0 + 12 = 14
11:00 High Point (27263) 0 + 1 + 8 = 9
11:30 Statesville (28625) 0 + 2 + 14 = 16
1:00 Wilmington (28403) 3 + 0 + 15 = 18
1:00 New Bern (28562) 0 + 1 + 9 = 10
2:15 Cary (27511) 0 + 3 + 5 = 8
2:30 Charlotte (28214) 2 + 2 + 4 = 8
3:30 lexington (27292) 0 + 1 + 10 = 11
4:00 Hildebran (28637) 0 + 0 + 10 = 10
10/22 Sunday
11:00 Durham (27707) 8 + 7 + 23 = 38
11:55 Kannapolis (28083) 5 + 2 + 18 = 25
12:00 Raleigh (27603) 5 + 3 + 17 = 25
1:00 Greensboro (27407) 2 + 0 + 11 = 13
1:00 Charlotte (28214) 1 + 0 + 7 = 8
1:00 Charlotte (28226) 2 + 4 + 10 = 16
3:00 Wilmington (28403) 3 + 2 + 17 = 22
3:30 Kannapolis (28083) 3 + 0 + 11 = 14
4:00 Charlotte (28214) 3 + 0 + 5 = 8
10/25 Wednesday
5:00 Hildebran (28637) 0 + 0 + 8 = 8
5:00 Charlotte (28214) 0 + 2 + 6 = 8
10/26 Thursday
6:00 Charlotte (28214) 0 + 3 + 5 = 8
10/27 Friday
5:00 Hildebran (28637) 2 + 0 + 6 = 8
10/28 Saturday
9:00 Cary (27511) 1 + 1 + 6 = 8
10:30 Charlotte (28214) 0 + 3 + 5 = 8
12:00 Jacksonville (28546) 4 + 3 + 22 = 29
1:00 Wilmington (28403) 3 + 3 + 15 = 21
10/29 Sunday
11:55 Kannapolis (28083) 2 + 2 + 8 = 12
1:00 Cary (27511) 0 + 3 + 8 = 11
3:30 Charlotte (28214) 1 + 2 + 5 = 8
North Dakota
10/22 Sunday
12:00 Fargo (58102) 3 + 4 + 7 = 14
3:00 Fargo (58102) 0 + 0 + 8 = 8
10/26 Thursday
5:30 Fargo (58103) 1 + 1 + 7 = 9
Nova Scotia
10/21 Saturday
9:00 YARMOUTH (B5A 1E6) 3 + 7 + 10 = 20
12:30 Halifax (B3L 1A4) 1 + 4 + 8 = 13
10/22 Sunday
12:30 Halifax (B3L 1A4) 3 + 0 + 10 = 13
12:30 Middleton (B0S 1P0) 3 + 5 + 2 = 10
10/29 Sunday
Sydney (B1P1C6) 1 + 0 + 12 = 13
Ohio
10/21 Saturday
10:00 North Olmsted (44070) 7 + 9 + 12 = 28
10:45 Cuyahoga Falls (44222) 4 + 3 + 26 = 33
11:30 Dublin (43017) 4 + 7 + 17 = 28
12:00 Mansfield (44907) 1 + 2 + 14 = 17
12:00 Streetsboro (44241) 3 + 3 + 19 = 25
12:00 Centerville (45459) 3 + 5 + 23 = 31
3:00 Strongsville (44136) 4 + 5 + 14 = 23
5:00 Ashtabula (44004) 2 + 11 + 21 = 34
5:00 Kent (44242) 0 + 1 + 28 = 29
5:30 Dublin (43017) 4 + 13 + 23 = 40
7:00 Niles (44446 ) 0 + 1 + 7 = 8
10/22 Sunday
10:00 Columbus (43214) 2 + 3 + 8 = 13
11:00 Dublin (43017) 1 + 3 + 8 = 12
12:00 Sandusky (44870) 0 + 1 + 17 = 18
12:00 Green (44685) 0 + 1 + 8 = 9
12:00 Sylvania (43560) 4 + 1 + 20 = 25
12:00 Toledo (43617) 2 + 1 + 7 = 10
12:15 Medina (44256) 0 + 0 + 8 = 8
1:00 Niles (44446 ) 4 + 2 + 5 = 11
2:00 Sandusky (44870) 0 + 0 + 14 = 14
3:00 Medina (44256) 0 + 0 + 9 = 9
3:30 Green (44685) 0 + 0 + 8 = 8
6:00 Mansfield (44907) 0 + 0 + 8 = 8
10/23 Monday
5:15 Green (44685) 0 + 1 + 11 = 12
10/24 Tuesday
5:15 Canton (44718) 6 + 13 + 19 = 38
10/25 Wednesday
5:15 Sheffield Village (44035-1439) 3 + 3 + 19 = 25
10/26 Thursday
4:00 Streetsboro (44241) 0 + 2 + 8 = 10
5:30 Ashtabula (44004) 1 + 7 + 9 = 17
10/27 Friday
5:15 Sheffield Village (44035-1439) 0 + 1 + 7 = 8
5:30 West Portsmouth (45663) 0 + 0 + 13 = 13
7:30 Columbus (43210) 0 + 1 + 8 = 9
10/28 Saturday
11:00 Kettering (45429) 1 + 2 + 32 = 35
12:00 Findlay (45840) 2 + 8 + 23 = 33
10/29 Sunday
12:00 Galion (44833) 0 + 0 + 15 = 15
12:00 Springfield (45504) 0 + 4 + 12 = 16
12:15 Mentor (44060) 2 + 1 + 10 = 13
12:15 Alliance (44601) 6 + 2 + 23 = 31
Oklahoma
10/21 Saturday
10:00 Oklahoma City (73139) 6 + 6 + 23 = 35
12:00 Jenks (74037) 5 + 2 + 12 = 19
5:00 Tulsa (74112) 2 + 3 + 13 = 18
10/22 Sunday
12:00 Tulsa (74133) 1 + 4 + 27 = 32
10/23 Monday
5:00 Norman (73069) 3 + 4 + 14 = 21
Ontario
10/21 Saturday
Windsor (N8W 1B9) 0 + 0 + 8 = 8
9:00 Toronto (M4Y1X9) 1 + 5 + 48 = 54
9:00 Oshawa (L1G 1K6) 5 + 9 + 18 = 32
9:00 Toronto (M4C 1J8) 2 + 4 + 14 = 20
10:00 Mississauga (L5A 3Y1) 5 + 7 + 26 = 38
10:00 Brampton (L6Z 1R3) 4 + 13 + 14 = 31
10:30 Burlington (L7R 2E4) 0 + 2 + 8 = 10
11:00 Cambridge (N3H 5G7) 2 + 2 + 12 = 16
11:00 oakville (L6K2G3) 5 + 10 + 12 = 27
11:00 Niagara Falls (L2E 2L4) 2 + 1 + 9 = 12
11:00 Vaughan (L4K 2A1) 2 + 4 + 15 = 21
11:00 Toronto (M4C 1J8) 3 + 4 + 16 = 23
11:15 Toronto (Scarborough) (M1V 1K4) 2 + 0 + 8 = 10
11:30 Mississauga (L5L 3A2) 9 + 19 + 35 = 63
11:30 Vaughan (L4J7Y3) 1 + 5 + 11 = 17
12:00 Orangeville (L9W 1K2) 4 + 6 + 10 = 20
12:00 Windsor (N8W 1B9) 2 + 1 + 5 = 8
12:00 Ottawa (K2J 5G4) 7 + 8 + 19 = 34
1:00 Burlington (L7R 2E4) 0 + 2 + 6 = 8
1:30 Vaughan (L4K 2A1) 6 + 5 + 29 = 40
3:30 Vaughan (L4J7Y3) 0 + 6 + 15 = 21
5:00 Toronto (M4E1E8) 2 + 4 + 5 = 11
10/22 Sunday
9:45 Whitby (L1N 5H5) 5 + 1 + 10 = 16
10:00 Brampton (L6Z 1R3) 6 + 7 + 11 = 24
11:00 Grimsby (L3M1R4) 3 + 7 + 6 = 16
11:00 St. Catharines (L2R 5J3) 1 + 4 + 11 = 16
11:00 London (N6E3M2) 0 + 5 + 17 = 22
11:00 Hamilton (L9B 2N1) 1 + 0 + 7 = 8
11:00 Waterloo (N2L 6L7) 9 + 3 + 29 = 41
11:00 Hamilton (L8T 2R5) 12 + 4 + 9 = 25
11:15 Toronto (Scarborough) (M1V 1K4) 3 + 3 + 8 = 14
11:30 Brampton (L6Y 1N7) 16 + 20 + 53 = 89
11:30 North Bay (P1B1G4) 2 + 3 + 9 = 14
11:30 Vaughan (L4J7Y3) 1 + 3 + 11 = 15
11:30 Barrie (L4M 6J4) 5 + 10 + 24 = 39
12:00 Ottawa (K1K 3B7) 7 + 9 + 21 = 37
12:30 Hamilton (L8S 1K5) 2 + 3 + 9 = 14
3:30 Vaughan (L4J7Y3) 3 + 8 + 12 = 23
10/25 Wednesday
4:00 oakville (L6K2G3) 1 + 8 + 11 = 20
4:00 Guelph (N1H7T8) 2 + 3 + 14 = 19
10/26 Thursday
4:00 Guelph (N1G4W3) 1 + 3 + 6 = 10
10/27 Friday
5:00 Toronto (M4E1E8) 3 + 2 + 3 = 8
10/28 Saturday
10:00 Milton (L9T 5B2) 1 + 6 + 25 = 32
11:00 oakville (L6K2G3) 10 + 9 + 12 = 31
11:15 Toronto (Scarborough) (M1V 1K4) 0 + 1 + 17 = 18
12:00 Georgetown (L7G3Z5) 3 + 4 + 6 = 13
12:00 Windsor (N8W 1B9) 0 + 0 + 13 = 13
5:00 Toronto (M4E1E8) 4 + 0 + 4 = 8
10/29 Sunday
11:00 Hamilton (L9B 2N1) 0 + 0 + 8 = 8
11:00 Kingston (K7L-1G2) 2 + 3 + 7 = 12
11:30 Barrie (L4M 6J4) 2 + 1 + 10 = 13
12:00 Thunder Bay (P7C 4S4) 1 + 9 + 8 = 18
3:00 Waterloo (N2L 6L7) 2 + 2 + 5 = 9
5:30 North Bay (P1B1G4) 0 + 2 + 14 = 16
Oregon
10/21 Saturday
9:30 Aloha (97003) 10 + 9 + 13 = 32
11:00 Portland (97214) 3 + 12 + 21 = 36
12:00 Milwaukie (97267) 2 + 5 + 27 = 34
10/22 Sunday
10:30 Salem (97301) 8 + 2 + 11 = 21
11:00 Salem (97301) 2 + 5 + 6 = 13
11:30 Portland (97219) 2 + 0 + 6 = 8
2:00 Medford (97501) 1 + 2 + 6 = 9
10/23 Monday
5:30 Troutdale (97060) 6 + 2 + 9 = 17
5:30 Portland (97213) 0 + 0 + 8 = 8
10/24 Tuesday
5:30 Milwaukie (97032) 2 + 8 + 10 = 20
10/25 Wednesday
3:30 Hood River (97031) 6 + 4 + 0 = 10
10/28 Saturday
10:00 Albany (97321) 1 + 3 + 5 = 9
10:00 Bend (97702) 2 + 6 + 8 = 16
12:30 Portland (97202) 7 + 9 + 11 = 27
1:00 Portland (97232) 0 + 2 + 7 = 9
10/29 Sunday
12:00 Wilsonville (97070) 4 + 5 + 12 = 21
1:00 Portland (97232) 0 + 1 + 9 = 10
Pennsylvania
10/21 Saturday
Altoona (16602) 1 + 2 + 7 = 10
10:00 East Norriton (19401) 5 + 10 + 27 = 42
11:00 Monroeville (15146) 2 + 3 + 16 = 21
12:00 Reading (19605) 1 + 0 + 8 = 9
12:00 Greensburg (15601) 2 + 1 + 13 = 16
1:00 East Norriton (19401) 4 + 4 + 26 = 34
2:45 Lancaster (17603) 2 + 3 + 15 = 20
4:30 sharon (16146) 0 + 2 + 19 = 21
10/22 Sunday
11:00 Tarentum (15084) 0 + 0 + 12 = 12
12:00 Boyertown (19512) 3 + 12 + 17 = 32
12:00 West Mifflin (15123) 1 + 6 + 7 = 14
1:00 Stroudsburg (18360) 3 + 3 + 26 = 32
1:00 Grove City (16127) 2 + 2 + 17 = 21
1:00 Indiana (15701) 3 + 3 + 8 = 14
3:00 Stroudsburg (18360) 3 + 1 + 6 = 10
10/25 Wednesday
4:00 Pittsburgh (15232) 3 + 2 + 12 = 17
5:00 sharon (16146) 1 + 1 + 9 = 11
10/26 Thursday
4:30 Ebensburg (15931) 1 + 3 + 4 = 8
5:45 Lancaster (17603) 2 + 3 + 4 = 9
10/27 Friday
11:30 Altoona (16602) 1 + 3 + 10 = 14
10/28 Saturday
10:00 Lancaster (17603) 3 + 4 + 7 = 14
10:00 Holmes (19043 ) 1 + 9 + 24 = 34
10:00 New Holland (17557) 0 + 4 + 12 = 16
10:00 Waynesboro (17268) 1 + 1 + 14 = 16
11:00 BUTLER (16001) 3 + 4 + 10 = 17
12:00 Bethel Park (15102) 4 + 9 + 30 = 43
12:00 Bellefonte (16823) 3 + 9 + 7 = 19
3:30 Lancaster (17603) 1 + 1 + 6 = 8
4:00 West Chester (19380) 6 + 1 + 9 = 16
10/29 Sunday
12:00 York (17402) 2 + 3 + 22 = 27
12:00 Bellefonte (16823) 0 + 6 + 4 = 10
1:00 Cranberry Township (16066) 1 + 2 + 5 = 8
3:00 York (17402) 1 + 3 + 13 = 17
3:00 New Holland (17557) 2 + 1 + 11 = 14
Puerto Rico
10/21 Saturday
12:00 Caguas (00725) 2 + 4 + 26 = 32
10/22 Sunday
12:00 Carolina (00983) 0 + 0 + 14 = 14
10/28 Saturday
11:00 Humacao (00791) 0 + 0 + 16 = 16
12:00 Ponce (00717) 0 + 1 + 11 = 12
10/29 Sunday
9:00 San Juan (00918) 0 + 2 + 16 = 18
Quebec
10/21 Saturday
9:00 Gatineau (J9H 6A6) 1 + 3 + 6 = 10
9:00 Gatineau (J9H 6A6) 2 + 6 + 7 = 15
9:30 joliette (J6E 5E8) 2 + 5 + 15 = 22
9:30 joliette (J6E 5E8) 0 + 3 + 11 = 14
10:00 Ste-Therese (J7E3H4) 6 + 3 + 26 = 35
10:00 sherbrooke (J1H 1P4) 6 + 3 + 4 = 13
10:00 Montréal ( H3B 1H5) 1 + 0 + 7 = 8
11:00 Verdun (H4G1W6) 0 + 0 + 20 = 20
11:00 Québec (G1K 3B9) 1 + 1 + 16 = 18
11:00 Chateauguay (J6K 1C4) 0 + 1 + 11 = 12
12:00 SHERBROOKE (J1H 5B7) 7 + 3 + 6 = 16
12:00 Montreal (H2K2H9) 1 + 0 + 15 = 16
12:00 Chateauguay (J6K 3J9) 2 + 2 + 5 = 9
12:30 Val-d'Or (J9P 1S4) 2 + 0 + 8 = 10
3:00 Québec (G1K 3B9) 0 + 1 + 17 = 18
10/22 Sunday
Saint-Jerome (J7Z5B8) 3 + 1 + 6 = 10
Beloeil (J3G 2M9) 1 + 1 + 20 = 22
8:30 Beloeil (J3G 2M9) 1 + 0 + 7 = 8
9:00 Montreal (H2S 2M2) 4 + 8 + 5 = 17
9:00 Montréal ( H3B 1H5) 1 + 2 + 5 = 8
9:30 joliette (J6E 5E8) 3 + 0 + 6 = 9
9:30 joliette (J6E 5E8) 5 + 4 + 14 = 23
10:00 Sherbrooke (J1G 1B6) 1 + 0 + 7 = 8
10:30 Gatineau (J8T 6H5) 3 + 4 + 18 = 25
11:00 Chateauguay (J6K 1C4) 0 + 0 + 11 = 11
11:00 Québec (G1K 3B9) 0 + 1 + 7 = 8
12:00 Gatineau (J8T 6H5) 1 + 1 + 8 = 10
12:00 Chateauguay (J6K 3J9) 2 + 2 + 8 = 12
3:00 Beloeil (J3G 2M9) 2 + 0 + 17 = 19
6:00 Cowansville (J2K2X6) 0 + 0 + 8 = 8
10/24 Tuesday
5:00 Montréal ( H3B 1H5) 0 + 0 + 12 = 12
6:00 Ste-Therese (J7E3H4) 0 + 1 + 19 = 20
6:00 Chateauguay (J6K 1C4) 0 + 0 + 9 = 9
10/25 Wednesday
6:00 Montreal (H2K2H9) 0 + 0 + 8 = 8
6:00 Montreal (H3L 2E8) 0 + 0 + 16 = 16
10/26 Thursday
6:00 Sherbrooke (J1G 1B6) 1 + 0 + 16 = 17
6:30 Gatineau (J8T6H5) 1 + 0 + 11 = 12
10/27 Friday
5:00 Chateauguay (J6K 3J9) 0 + 2 + 7 = 9
6:00 Montreal (H3L 2E8) 3 + 1 + 4 = 8
10/28 Saturday
10:00 Saint-Jean-sur-Richelieu (J3B 2J7) 2 + 0 + 6 = 8
10:00 Ste-Therese (J7E3H4) 3 + 1 + 7 = 11
10:00 Sherbrooke (J1G 1B6) 1 + 0 + 11 = 12
10:00 Montréal ( H3B 1H5) 1 + 2 + 31 = 34
11:00 Verdun (H4G1W6) 0 + 0 + 10 = 10
11:00 Montreal (H3L 2E8) 3 + 2 + 3 = 8
11:00 Chateauguay (J6K 1C4) 3 + 4 + 7 = 14
12:00 Trois-Rivières (G8Z 3W2) 3 + 1 + 4 = 8
5:00 Longueuil (J4K 2C5) 1 + 2 + 37 = 40
10/29 Sunday
Saint-Jerome (J7Z5B8) 2 + 1 + 9 = 12
10:00 Ste-Therese (J7E3H4) 0 + 2 + 10 = 12
10:00 Montréal ( H3B 1H5) 2 + 0 + 6 = 8
11:00 Montreal (H3L 2E8) 8 + 0 + 8 = 16
6:00 Cowansville (J2K2X6) 0 + 0 + 8 = 8
Rhode Island
10/21 Saturday
1:15 Warwick (02888) 4 + 6 + 16 = 26
10/28 Saturday
12:00 Pawtucket (02860) 2 + 8 + 15 = 25
Saskatchewan
10/21 Saturday
12:00 Saskatoon (S7H 2P6) 2 + 2 + 19 = 23
South Carolina
10/21 Saturday
Anderson (29621) 0 + 0 + 8 = 8
9:00 Myrtle Beach (29588) 15 + 10 + 19 = 44
10:00 Rock Hill (29730) 2 + 4 + 12 = 18
1:00 Greenville (29607) 2 + 2 + 4 = 8
1:15 Rock Hill (29730) 1 + 3 + 12 = 16
10/22 Sunday
11:45 Myrtle Beach (29577) 1 + 0 + 10 = 11
12:00 Columbia (29210) 6 + 1 + 25 = 32
2:30 Anderson (29621) 1 + 1 + 10 = 12
10/24 Tuesday
5:00 Greenville (29607) 1 + 1 + 6 = 8
10/27 Friday
6:00 Rock Hill (29730) 1 + 4 + 14 = 19
10/28 Saturday
10:00 Rock Hill (29730) 2 + 7 + 9 = 18
11:00 Summerville (29485) 4 + 3 + 18 = 25
1:00 Rock Hill (29730) 0 + 1 + 8 = 9
5:00 Greenville (29607) 3 + 3 + 11 = 17
10/29 Sunday
12:00 Bluffton (29910) 1 + 2 + 6 = 9
2:30 Anderson (29621) 4 + 2 + 5 = 11
South Dakota
10/28 Saturday
10:00 Rapid City (57702) 1 + 5 + 16 = 22
Tennessee
10/21 Saturday
Murfreesboro (37129) 1 + 1 + 17 = 19
12:01 Madison (37115) 0 + 1 + 17 = 18
10:30 Madison (37115) 0 + 0 + 12 = 12
12:00 Morristown (37813) 0 + 0 + 8 = 8
12:00 Murfreesboro (37129) 2 + 1 + 30 = 33
12:30 Chattanooga (37421) 4 + 3 + 23 = 30
2:30 Madison (37115) 1 + 4 + 16 = 21
6:30 Madison (37115) 0 + 0 + 15 = 15
10/22 Sunday
12:00 Maryville (37801) 2 + 2 + 11 = 15
12:00 Madison (37115) 3 + 5 + 20 = 28
12:00 Murfreesboro (37129) 1 + 12 + 21 = 34
12:00 Bristol (37620) 1 + 1 + 14 = 16
3:30 Madison (37115) 0 + 0 + 12 = 12
10/25 Wednesday
5:00 Knoxville (37924) 2 + 1 + 15 = 18
10/28 Saturday
Memphis (38133) 0 + 3 + 19 = 22
10:00 Clarksville (37042) 5 + 2 + 10 = 17
11:00 McKenzie (38201) 4 + 1 + 8 = 13
11:00 Cookeville (38501) 2 + 1 + 16 = 19
12:00 Knoxville (37919) 10 + 9 + 26 = 45
12:00 Chattanooga (37415) 2 + 1 + 16 = 19
12:00 Sevierville (37862) 0 + 1 + 7 = 8
12:15 Franklin (37217) 1 + 4 + 4 = 9
2:00 Memphis (38133) 1 + 0 + 9 = 10
6:00 Murfreesboro (37130) 2 + 1 + 12 = 15
10/29 Sunday
Murfreesboro (37130) 1 + 6 + 2 = 9
1:00 Kingsport (37660) 1 + 1 + 10 = 12
Texas
10/21 Saturday
Mission (78572) 0 + 0 + 16 = 16
9:00 Plano (75023) 3 + 12 + 16 = 31
9:00 McKinney (75070) 5 + 4 + 3 = 12
9:00 El Paso (79902) 0 + 0 + 12 = 12
10:00 Austin (78757) 8 + 3 + 20 = 31
10:00 Tyler (75701) 2 + 9 + 13 = 24
11:00 Waco (76710) 2 + 6 + 8 = 16
11:00 Austin (78727) 1 + 3 + 16 = 20
11:00 Bedford (76021) 1 + 0 + 16 = 17
11:30 Tyler (75707) 1 + 5 + 6 = 12
12:00 Houston (77015) 0 + 3 + 22 = 25
12:00 Oak Ridge North (77385) 7 + 8 + 19 = 34
12:00 El Paso (79902) 0 + 2 + 24 = 26
12:00 Conroe (77301) 3 + 3 + 10 = 16
1:00 Fort Worth (76140) 0 + 1 + 11 = 12
1:00 San Antonio (78221) 4 + 1 + 18 = 23
2:00 MANSFIELD (76063) 1 + 1 + 6 = 8
2:00 Weslaco (78596) 0 + 4 + 37 = 41
3:00 Bedford (76021) 0 + 0 + 8 = 8
3:30 Waco (76706) 0 + 3 + 15 = 18
6:00 Lewisville (75057) 4 + 3 + 29 = 36
6:00 El Paso (79925) 2 + 2 + 32 = 36
11:20 Killeen (76543) 0 + 0 + 8 = 8
10/22 Sunday
10:00 Austin (78757) 17 + 9 + 27 = 53
11:00 san antonio (78229) 2 + 4 + 36 = 42
11:00 Houston (77098) 4 + 10 + 16 = 30
11:00 Denison (75020) 0 + 1 + 8 = 9
12:00 New Braunfels (78130) 3 + 4 + 22 = 29
12:00 Cypress (77429) 2 + 3 + 19 = 24
12:00 Conroe (77301) 4 + 1 + 15 = 20
12:00 Laredo (78043) 0 + 0 + 15 = 15
1:00 Houston (77089) 2 + 5 + 18 = 25
1:00 Fort Worth (76133) 2 + 2 + 7 = 11
1:00 Bedford (76021) 1 + 2 + 11 = 14
1:00 Killeen (76543) 1 + 0 + 8 = 9
1:00 Dallas (75287) 3 + 1 + 27 = 31
2:00 MANSFIELD (76063) 4 + 2 + 5 = 11
2:00 Corpus Christi (78413) 2 + 2 + 29 = 33
3:00 Fort Worth (76133) 1 + 0 + 11 = 12
3:00 Edinburg (78542) 0 + 1 + 13 = 14
3:30 Waco (76706) 0 + 1 + 7 = 8
6:00 El Paso (79925) 0 + 0 + 16 = 16
10/23 Monday
5:00 Plano (75023) 1 + 3 + 19 = 23
6:30 Austin (78727) 0 + 2 + 12 = 14
10/25 Wednesday
6:00 Lubbock (79401) 0 + 0 + 13 = 13
10/26 Thursday
6:00 MANSFIELD (76063) 1 + 0 + 7 = 8
6:00 El Paso (79925) 0 + 1 + 25 = 26
6:30 Austin (78727) 0 + 1 + 10 = 11
10/28 Saturday
9:00 Houston (77077) 3 + 1 + 7 = 11
10:00 Humble (77338) 3 + 0 + 8 = 11
11:00 Dallas (75247) 2 + 0 + 13 = 15
11:00 Bedford (76021) 0 + 2 + 13 = 15
11:00 Waco (76710) 2 + 5 + 9 = 16
11:30 Tyler (75707) 0 + 3 + 10 = 13
12:00 Conroe (77301) 4 + 1 + 17 = 22
12:00 Frisco (75034) 6 + 7 + 12 = 25
3:00 Bedford (76021) 2 + 0 + 7 = 9
3:00 Dallas (75247) 0 + 0 + 10 = 10
4:00 Longview (75604) 2 + 0 + 10 = 12
5:00 Copperas Cove (76522) 1 + 0 + 7 = 8
10/29 Sunday
9:00 Bedford (76021) 2 + 0 + 7 = 9
12:00 Cypress (77429) 3 + 0 + 20 = 23
12:00 Dallas (75247) 3 + 5 + 6 = 14
12:00 Conroe (77301) 2 + 1 + 11 = 14
12:00 Frisco (75034) 1 + 3 + 8 = 12
1:00 Fort Worth (76133) 0 + 1 + 7 = 8
2:00 Fort Worth (76244) 1 + 4 + 11 = 16
3:20 Copperas Cove (76522) 3 + 1 + 6 = 10
4:00 Joshua (76058)
Utah
10/21 Saturday
11:00 Saint George (84770) 2 + 1 + 8 = 11
11:00 Midvale (84047) 3 + 1 + 16 = 20
1:30 Tooele (84074) 2 + 3 + 10 = 15
2:00 Sandy (84094) 2 + 8 + 14 = 24
5:30 North Ogden (84414) 2 + 2 + 15 = 19
11:00 Sandy (84070) 1 + 2 + 28 = 31
10/23 Monday
6:30 Lehi (84043) 2 + 3 + 6 = 11
10/25 Wednesday
5:30 Layton (84041) 0 + 4 + 13 = 17
10/26 Thursday
5:30 Bountiful (84010) 0 + 4 + 4 = 8
5:30 Tooele (84074) 2 + 1 + 5 = 8
10/27 Friday
5:30 Tooele (84074) 1 + 1 + 6 = 8
6:00 Layton (84041) 1 + 1 + 13 = 15
10/28 Saturday
11:00 Saint George (84770) 1 + 4 + 3 = 8
2:00 Salt Lake City (84111) 0 + 0 + 10 = 10
5:30 North Salt Lake (84054) 0 + 3 + 12 = 15
Virginia
10/21 Saturday
10:00 Sterling (20165) 1 + 2 + 7 = 10
10:00 Fredericksburg (22401) 0 + 5 + 17 = 22
10:30 Richmond (23228) 1 + 1 + 6 = 8
12:00 Chantilly (20151) 7 + 6 + 27 = 40
12:00 Portsmouth (23701) 2 + 6 + 13 = 21
1:00 Lynchburg (24502) 3 + 4 + 7 = 14
1:30 Fredericksburg (22401) 0 + 0 + 10 = 10
2:30 Chantilly (20151) 3 + 1 + 4 = 8
4:00 Midlothian (23113) 2 + 3 + 5 = 10
4:00 Virginia Beach (23452) 1 + 2 + 11 = 14
5:00 Newport News (23608) 4 + 4 + 34 = 42
5:30 Richmond (23228) 0 + 5 + 4 = 9
10/22 Sunday
12:00 Fairfax (22031) 8 + 14 + 18 = 40
12:00 Norfolk (23503) 2 + 4 + 8 = 14
12:30 Harrisonburg (22801) 3 + 5 + 20 = 28
2:30 Fairfax (22031) 0 + 3 + 7 = 10
10/23 Monday
3:45 Lexington (24450) 6 + 4 + 2 = 12
10/27 Friday
6:30 Richmond (23228) 0 + 4 + 7 = 11
10/28 Saturday
10:00 Sterling (20165) 1 + 1 + 8 = 10
12:00 Winchester (22601) 1 + 6 + 15 = 22
1:00 Lynchburg (24502) 0 + 4 + 9 = 13
2:30 Winchester (22601) 0 + 4 + 11 = 15
5:30 Richmond (23228) 0 + 5 + 5 = 10
10/29 Sunday
11:00 Centreville (20120)
1:00 Charlottesville (22901) 4 + 5 + 12 = 21
2:00 Virginia Beach (23452) 0 + 0 + 8 = 8
2:45 Fincastle (24090) 4 + 5 + 9 = 18
Washington
10/21 Saturday
9:00 Edmonds (98026) 4 + 3 + 12 = 19
9:30 Seattle (98116) 5 + 0 + 8 = 13
10:00 Renton (98055) 3 + 9 + 24 = 36
10:00 Richland (99354) 0 + 1 + 13 = 14
10:00 Lacey (98503) 8 + 8 + 10 = 26
12:00 Spokane (99201) 1 + 6 + 13 = 20
12:00 Marysville (98270) 2 + 1 + 7 = 10
1:00 Renton (98055) 2 + 1 + 13 = 16
1:30 Edmonds (98026) 7 + 3 + 12 = 22
2:00 Richland (99354) 2 + 5 + 17 = 24
3:00 Puyallup (98373) 4 + 2 + 18 = 24
4:00 Spokane Valley (99216) 4 + 5 + 7 = 16
10/22 Sunday
9:00 Port Townsend (98368) 10 + 1 + 0 = 11
11:00 Lakewood (98499) 1 + 1 + 6 = 8
11:00 Ellensburg (98926) 2 + 4 + 5 = 11
11:00 Bellevue (98005) 6 + 9 + 9 = 24
11:30 Spokane (99207) 2 + 9 + 23 = 34
12:00 Bremerton (98337) 0 + 0 + 11 = 11
1:30 Grandview (98930) 0 + 0 + 15 = 15
6:00 Anacortes (98221) 0 + 2 + 8 = 10
10/23 Monday
4:30 Auburn (98002) 1 + 3 + 10 = 14
10/24 Tuesday
5:30 Spokane (99207) 2 + 7 + 19 = 28
10/26 Thursday
6:00 Marysville (98270) 1 + 1 + 11 = 13
10/28 Saturday
12:00 Tacoma (98406) 4 + 2 + 9 = 15
12:30 Spokane (99207) 1 + 4 + 13 = 18
1:00 Redmond (98052) 2 + 4 + 14 = 20
5:00 Tacoma (98409) 0 + 1 + 7 = 8
10/29 Sunday
12:30 Mt Vernon (98273) 0 + 1 + 7 = 8
2:30 Seattle (98107) 3 + 2 + 6 = 11
5:00 Coupeville (98239) 1 + 1 + 6 = 8
West Virginia
10/21 Saturday
11:00 Parkersburg (26101) 0 + 3 + 9 = 12
10/22 Sunday
12:00 Morgantown (26501) 6 + 1 + 13 = 20
10/28 Saturday
11:00 Vienna (26105) 2 + 3 + 5 = 10
Wisconsin
10/21 Saturday
9:00 Green Bay (54304) 0 + 6 + 4 = 10
9:00 Appleton (54915) 2 + 7 + 8 = 17
10:00 Fond du Lac (54935) 2 + 6 + 16 = 24
11:00 La Crosse (54601) 5 + 4 + 6 = 15
11:00 Oconomowoc (53066) 3 + 0 + 16 = 19
10/22 Sunday
11:00 La Crosse (54601) 3 + 3 + 10 = 16
11:00 Stevens Point (54481) 4 + 6 + 5 = 15
12:00 Madison (53719) 7 + 19 + 35 = 61
12:00 Green Bay (54302) 6 + 2 + 9 = 17
12:00 Schofield (54476) 3 + 2 + 21 = 26
12:30 Oshkosh (54902) 2 + 2 + 7 = 11
10/24 Tuesday
3:00 Sheboygan (53081) 6 + 5 + 8 = 19
10/26 Thursday
3:00 Appleton (54915) 1 + 4 + 12 = 17
10/27 Friday
3:00 Green Bay (54304) 3 + 5 + 9 = 17
10/28 Saturday
9:00 Appleton (54915) 0 + 2 + 7 = 9
11:00 La Crosse (54601) 4 + 3 + 5 = 12
10/29 Sunday
11:00 La Crosse (54601) 4 + 5 + 8 = 17
11:00 Kenosha (53142) 3 + 1 + 20 = 24
12:00 Janesville (53545) 1 + 1 + 19 = 21
12:00 Green Bay (54302) 9 + 1 + 15 = 25
Wyoming
10/29 Sunday
1:00 Cheyenne (82001) 2 + 3 + 7 = 12